Time;durP1;ratioP1;P1;durP2;ratioP2;P2;SDS_P1;SDS_P2;PMS_P1;PMS_P2;Temp;Humidity;BMP_temperature;BMP_pressure;BME280_temperature;BME280_humidity;BME280_pressure;Samples;Min_cycle;Max_cycle;Signal;HPM_P1;HPM_P2
2021/06/27 00:01:20;;;;;;;15.05;10.88;;;;;;;20.13;70.15;100442.94;5058314;27;101241;-90
2021/06/27 00:03:46;;;;;;;12.60;10.27;;;;;;;20.17;70.00;100448.88;5058964;27;96961;-91
2021/06/27 00:06:11;;;;;;;13.25;10.43;;;;;;;20.15;69.78;100445.47;5056016;27;96868;-91
2021/06/27 00:08:37;;;;;;;13.52;10.70;;;;;;;20.12;70.06;100443.88;5037917;27;100107;-90
2021/06/27 00:11:05;;;;;;;12.25;9.93;;;;;;;20.08;69.95;100444.22;5081726;27;97918;-90
2021/06/27 00:13:32;;;;;;;16.65;11.35;;;;;;;20.10;70.03;100447.63;5045401;27;97105;-90
2021/06/27 00:15:57;;;;;;;14.80;10.90;;;;;;;20.12;69.83;100454.53;5059273;27;96929;-90
2021/06/27 00:18:24;;;;;;;13.50;11.23;;;;;;;20.12;69.73;100449.22;5041627;27;101203;-90
2021/06/27 00:20:52;;;;;;;12.65;11.13;;;;;;;20.19;69.50;100454.09;5040949;27;101184;-91
2021/06/27 00:23:20;;;;;;;17.02;10.70;;;;;;;20.13;69.55;100450.94;5038882;27;97196;-91
2021/06/27 00:25:46;;;;;;;13.00;10.88;;;;;;;20.06;69.88;100452.31;5038444;27;97418;-90
2021/06/27 00:28:11;;;;;;;13.05;10.43;;;;;;;20.05;70.08;100452.44;5041759;27;100025;-91
2021/06/27 00:30:39;;;;;;;14.70;11.45;;;;;;;20.19;69.79;100454.09;5041637;27;100624;-90
2021/06/27 00:33:06;;;;;;;14.40;10.65;;;;;;;20.05;69.89;100453.28;5039721;27;96847;-91
2021/06/27 00:35:33;;;;;;;13.75;10.02;;;;;;;20.04;69.83;100451.59;5058608;27;97327;-91
2021/06/27 00:37:59;;;;;;;15.90;11.13;;;;;;;20.08;69.49;100446.91;5027895;27;101720;-90
2021/06/27 00:40:27;;;;;;;16.00;10.68;;;;;;;20.04;69.90;100453.38;5058118;27;101207;-88
2021/06/27 00:42:53;;;;;;;15.23;11.15;;;;;;;20.04;69.95;100453.38;5056803;27;96622;-90
2021/06/27 00:45:20;;;;;;;17.33;10.77;;;;;;;20.03;69.86;100459.69;5076270;27;97250;-91
2021/06/27 00:47:47;;;;;;;16.58;10.82;;;;;;;20.03;69.75;100457.03;5039073;27;100937;-90
2021/06/27 00:50:18;;;;;;;11.93;10.05;;;;;;;19.99;69.89;100452.88;5075408;27;97114;-91
2021/06/27 00:52:44;;;;;;;11.15;9.85;;;;;;;20.02;69.67;100450.00;5039893;27;96765;-90
2021/06/27 00:55:11;;;;;;;14.73;11.43;;;;;;;20.01;69.63;100451.81;5058973;27;96928;-90
2021/06/27 00:57:37;;;;;;;13.00;10.38;;;;;;;20.01;69.62;100453.59;5056567;27;100119;-89
2021/06/27 01:00:24;;;;;;;14.38;10.70;;;;;;;19.91;69.63;100453.41;5037750;27;101600;-91
2021/06/27 01:02:49;;;;;;;13.13;10.45;;;;;;;19.88;69.68;100456.31;5027574;27;96922;-91
2021/06/27 01:05:21;;;;;;;16.98;10.55;;;;;;;19.88;69.82;100458.97;5038376;27;96915;-90
2021/06/27 01:07:47;;;;;;;12.55;10.40;;;;;;;19.84;70.07;100457.50;5057890;27;98693;-91
2021/06/27 01:10:13;;;;;;;13.85;10.90;;;;;;;19.83;69.82;100450.44;5061529;27;101093;-91
2021/06/27 01:12:39;;;;;;;13.95;9.85;;;;;;;19.84;69.59;100449.50;5044294;27;97239;-91
2021/06/27 01:15:07;;;;;;;13.57;10.88;;;;;;;19.72;70.34;100443.19;5059096;27;97135;-91
2021/06/27 01:17:33;;;;;;;12.95;10.60;;;;;;;19.75;70.01;100439.47;5040322;27;101141;-90
2021/06/27 01:19:58;;;;;;;13.77;10.20;;;;;;;19.67;70.34;100446.19;5061371;27;101596;-91
2021/06/27 01:22:25;;;;;;;12.32;10.63;;;;;;;19.56;70.60;100446.06;5061637;27;97210;-92
2021/06/27 01:24:51;;;;;;;14.68;10.80;;;;;;;19.62;70.34;100437.66;5040958;27;97861;-91
2021/06/27 01:27:17;;;;;;;13.15;11.02;;;;;;;19.53;70.72;100445.44;5040592;27;101497;-91
2021/06/27 01:29:42;;;;;;;13.93;10.23;;;;;;;19.49;70.81;100446.59;5023916;27;99932;-91
2021/06/27 01:32:11;;;;;;;13.27;10.48;;;;;;;19.42;70.76;100435.50;5044174;27;96652;-91
2021/06/27 01:34:40;;;;;;;17.25;11.68;;;;;;;19.45;70.60;100440.63;5040918;27;96944;-90
2021/06/27 01:37:06;;;;;;;14.50;10.38;;;;;;;19.34;71.20;100440.50;5044601;27;101425;-91
2021/06/27 01:39:35;;;;;;;15.32;10.57;;;;;;;19.40;70.63;100432.09;5060578;27;99499;-90
2021/06/27 01:42:01;;;;;;;12.70;10.55;;;;;;;19.35;70.56;100434.25;5040963;27;97051;-91
2021/06/27 01:44:27;;;;;;;12.93;10.73;;;;;;;19.28;71.02;100432.94;5024916;27;97021;-89
2021/06/27 01:46:55;;;;;;;16.35;10.50;;;;;;;19.34;70.69;100428.06;5057291;27;100593;-91
2021/06/27 01:49:21;;;;;;;14.02;10.48;;;;;;;19.35;70.51;100420.94;5041863;27;100837;-91
2021/06/27 01:51:46;;;;;;;13.00;10.30;;;;;;;19.15;71.35;100416.97;5045334;27;96703;-91
2021/06/27 01:54:12;;;;;;;17.80;16.00;;;;;;;19.21;70.99;100429.88;5055050;27;96828;-91
2021/06/27 01:56:38;;;;;;;13.02;10.55;;;;;;;19.19;71.00;100421.13;5060741;27;97472;-91
2021/06/27 01:59:05;;;;;;;15.13;11.00;;;;;;;19.20;71.05;100426.34;5043566;27;101652;-91
2021/06/27 02:01:34;;;;;;;15.20;10.90;;;;;;;19.15;70.94;100439.13;5057829;27;97093;-90
2021/06/27 02:04:00;;;;;;;16.02;10.70;;;;;;;19.13;71.03;100430.38;5039091;27;96903;-91
2021/06/27 02:06:27;;;;;;;12.75;10.20;;;;;;;19.10;70.96;100419.09;5057308;27;101069;-91
2021/06/27 02:08:54;;;;;;;18.63;10.95;;;;;;;19.18;70.61;100428.25;5041576;27;99859;-91
2021/06/27 02:11:21;;;;;;;18.48;11.07;;;;;;;19.01;71.27;100423.22;5053056;27;96863;-92
2021/06/27 02:13:48;;;;;;;15.00;11.15;;;;;;;18.93;71.46;100423.75;5063998;27;97146;-91
2021/06/27 02:16:13;;;;;;;15.60;11.60;;;;;;;18.94;71.41;100419.28;5057159;27;100172;-91
2021/06/27 02:18:41;;;;;;;17.52;11.18;;;;;;;18.97;71.13;100416.44;5072268;27;97261;-91
2021/06/27 02:21:12;;;;;;;12.73;10.10;;;;;;;18.94;71.17;100421.97;5060871;27;97205;-90
2021/06/27 02:23:39;;;;;;;11.93;10.13;;;;;;;18.94;71.10;100427.28;5060555;27;96752;-91
2021/06/27 02:26:04;;;;;;;14.57;11.20;;;;;;;18.98;71.16;100428.75;5040068;27;100023;-91
2021/06/27 02:28:30;;;;;;;15.57;10.48;;;;;;;18.98;71.01;100420.78;5060020;27;99900;-91
2021/06/27 02:30:56;;;;;;;19.38;17.48;;;;;;;18.96;70.86;100422.69;5056962;27;97014;-90
2021/06/27 02:33:22;;;;;;;13.75;10.02;;;;;;;18.92;71.17;100423.84;5060794;27;97027;-90
2021/06/27 02:35:48;;;;;;;20.42;10.43;;;;;;;18.87;71.18;100432.13;5039655;27;101052;-90
2021/06/27 02:38:14;;;;;;;12.13;10.27;;;;;;;18.84;71.12;100428.84;5060567;27;98423;-91
2021/06/27 02:40:41;;;;;;;13.23;10.23;;;;;;;18.85;71.10;100436.72;5045618;27;96815;-91
2021/06/27 02:43:07;;;;;;;12.20;9.75;;;;;;;18.91;70.85;100431.00;5027267;27;97005;-91
2021/06/27 02:45:33;;;;;;;13.15;10.38;;;;;;;18.90;70.72;100431.91;5060092;27;100496;-90
2021/06/27 02:47:59;;;;;;;13.80;10.73;;;;;;;18.90;70.94;100439.06;5060038;27;97952;-90
2021/06/27 02:50:25;;;;;;;12.10;9.75;;;;;;;18.89;70.47;100426.72;5046266;27;96786;-90
2021/06/27 02:52:50;;;;;;;17.48;9.27;;;;;;;18.84;70.23;100435.00;5042195;27;97000;-90
2021/06/27 02:55:16;;;;;;;10.38;9.25;;;;;;;18.84;70.51;100435.00;5057177;27;98418;-91
2021/06/27 02:57:42;;;;;;;14.98;8.82;;;;;;;18.90;70.09;100429.25;5025533;27;101430;-91
2021/06/27 03:00:14;;;;;;;16.95;10.15;;;;;;;18.88;70.13;100420.56;5056584;27;96926;-88
2021/06/27 03:02:40;;;;;;;13.77;8.77;;;;;;;18.83;70.34;100413.84;5038786;27;96983;-90
2021/06/27 03:05:07;;;;;;;12.60;9.13;;;;;;;18.90;70.36;100410.66;5042883;27;101501;-91
2021/06/27 03:07:33;;;;;;;13.48;8.73;;;;;;;18.88;70.56;100411.69;5077202;27;98383;-91
2021/06/27 03:09:58;;;;;;;13.70;8.77;;;;;;;18.92;70.35;100411.41;5038983;27;96847;-90
2021/06/27 03:12:24;;;;;;;11.48;8.68;;;;;;;18.86;70.73;100411.81;5056637;27;96604;-91
2021/06/27 03:14:50;;;;;;;14.40;8.85;;;;;;;18.85;70.51;100417.22;5041965;27;102024;-91
2021/06/27 03:17:15;;;;;;;10.70;8.88;;;;;;;18.80;70.70;100411.38;5059334;27;98275;-90
2021/06/27 03:19:41;;;;;;;13.48;9.60;;;;;;;18.78;70.56;100406.16;5058445;27;97093;-91
2021/06/27 03:22:07;;;;;;;17.00;9.02;;;;;;;18.78;70.47;100404.34;5055623;27;96862;-91
2021/06/27 03:24:32;;;;;;;16.38;8.82;;;;;;;18.74;70.55;100392.22;5056072;27;101816;-89
2021/06/27 03:26:58;;;;;;;16.80;9.32;;;;;;;18.87;70.39;100399.38;5055970;27;101481;-91
2021/06/27 03:29:23;;;;;;;13.05;8.25;;;;;;;18.84;70.31;100397.75;5049840;27;96693;-91
2021/06/27 03:31:49;;;;;;;12.88;8.02;;;;;;;18.87;69.96;100400.22;5076957;27;97037;-91
2021/06/27 03:34:14;;;;;;;11.57;8.00;;;;;;;18.84;69.74;100407.56;5039020;27;101229;-90
2021/06/27 03:36:40;;;;;;;18.73;8.82;;;;;;;18.83;70.04;100406.72;5041946;27;101427;-91
2021/06/27 03:39:08;;;;;;;11.85;7.90;;;;;;;18.76;70.01;100405.41;5056345;27;96661;-88
2021/06/27 03:41:45;;;;;;;15.15;7.82;;;;;;;18.82;69.66;100397.03;5039878;27;96861;-89
2021/06/27 03:44:12;;;;;;;9.43;8.23;;;;;;;18.83;69.63;100398.72;5043969;27;101414;-91
2021/06/27 03:46:37;;;;;;;14.52;8.45;;;;;;;18.97;69.39;100387.16;5040385;27;98346;-89
2021/06/27 03:49:03;;;;;;;15.38;8.40;;;;;;;19.26;68.85;100401.13;5065643;27;96759;-90
2021/06/27 03:51:29;;;;;;;15.68;7.97;;;;;;;19.37;68.66;100397.72;5041433;27;96916;-90
2021/06/27 03:53:55;;;;;;;12.00;8.45;;;;;;;19.32;68.71;100398.06;5059135;27;97561;-90
2021/06/27 03:56:21;;;;;;;17.08;8.30;;;;;;;19.32;68.74;100399.88;5056109;27;101566;-90
2021/06/27 03:58:47;;;;;;;12.27;7.70;;;;;;;19.48;68.01;100403.13;5050898;27;97206;-91
2021/06/27 04:01:13;;;;;;;12.35;7.63;;;;;;;19.43;67.83;100397.28;5037382;27;96871;-91
2021/06/27 04:03:39;;;;;;;18.52;7.80;;;;;;;19.50;67.84;100395.91;5050401;27;101233;-91
2021/06/27 04:06:05;;;;;;;11.20;8.45;;;;;;;19.72;67.52;100397.94;5059329;27;97426;-90
2021/06/27 04:08:31;;;;;;;10.18;8.38;;;;;;;19.75;67.27;100400.41;5059461;27;97189;-90
2021/06/27 04:10:58;;;;;;;16.42;8.15;;;;;;;19.71;67.36;100401.56;5047438;27;96892;-90
2021/06/27 04:13:28;;;;;;;18.40;8.55;;;;;;;19.78;66.90;100408.16;5063037;27;101665;-90
2021/06/27 04:15:54;;;;;;;9.38;7.60;;;;;;;19.76;66.79;100394.09;5037702;27;101835;-91
2021/06/27 04:18:20;;;;;;;12.57;8.40;;;;;;;19.71;67.26;100400.72;5042540;27;96752;-91
2021/06/27 04:20:46;;;;;;;14.07;7.90;;;;;;;19.84;66.91;100401.56;5058817;27;96954;-91
2021/06/27 04:23:13;;;;;;;12.13;8.73;;;;;;;20.01;66.53;100398.53;5038616;27;100314;-90
2021/06/27 04:25:38;;;;;;;13.10;8.18;;;;;;;20.09;66.30;100404.13;5075812;27;98277;-90
2021/06/27 04:28:06;;;;;;;16.60;8.40;;;;;;;20.14;66.01;100401.16;5042293;27;96867;-90
2021/06/27 04:30:32;;;;;;;12.45;8.27;;;;;;;20.33;65.65;100404.19;5042850;27;96961;-91
2021/06/27 04:32:57;;;;;;;11.30;7.55;;;;;;;20.49;65.39;100406.56;5055133;27;101657;-90
2021/06/27 04:35:23;;;;;;;16.20;8.23;;;;;;;20.48;65.25;100406.69;5041625;27;100435;-91
2021/06/27 04:37:48;;;;;;;14.35;8.27;;;;;;;20.55;64.63;100414.13;5055294;27;96955;-90
2021/06/27 04:40:14;;;;;;;10.32;7.85;;;;;;;20.69;64.25;100426.44;5058409;27;97083;-91
2021/06/27 04:42:40;;;;;;;12.52;7.45;;;;;;;20.75;64.12;100422.47;5050520;27;100000;-90
2021/06/27 04:45:06;;;;;;;14.35;7.05;;;;;;;20.67;64.04;100419.53;5058900;27;100828;-90
2021/06/27 04:47:33;;;;;;;11.07;7.97;;;;;;;20.61;63.84;100419.97;5038219;27;96854;-90
2021/06/27 04:49:59;;;;;;;12.10;7.88;;;;;;;20.61;64.28;100418.16;5044869;27;96953;-89
2021/06/27 04:52:24;;;;;;;11.93;8.45;;;;;;;20.65;64.31;100429.44;5079400;27;98654;-90
2021/06/27 04:54:50;;;;;;;17.55;8.52;;;;;;;20.63;64.22;100418.91;5058349;27;101283;-90
2021/06/27 04:57:16;;;;;;;11.35;6.88;;;;;;;20.64;64.80;100430.41;5069940;27;96906;-90
2021/06/27 04:59:41;;;;;;;11.45;7.22;;;;;;;20.86;64.59;100416.34;5044395;27;96963;-90
2021/06/27 05:02:07;;;;;;;15.68;8.23;;;;;;;21.01;64.05;100417.84;5058128;27;101542;-90
2021/06/27 05:04:32;;;;;;;14.63;7.55;;;;;;;21.17;63.60;100414.81;5047526;27;101032;-90
2021/06/27 05:06:58;;;;;;;12.63;7.60;;;;;;;21.40;63.11;100421.94;5041351;27;96736;-90
2021/06/27 05:09:23;;;;;;;19.27;9.90;;;;;;;21.65;62.37;100415.53;5079842;27;96927;-90
2021/06/27 05:11:49;;;;;;;9.85;7.50;;;;;;;22.00;61.65;100416.38;5043897;27;101391;-90
2021/06/27 05:14:14;;;;;;;8.07;6.90;;;;;;;22.17;61.00;100409.69;5058252;27;99995;-90
2021/06/27 05:16:40;;;;;;;10.48;7.25;;;;;;;22.23;60.30;100414.56;5041086;27;96633;-89
2021/06/27 05:19:05;;;;;;;11.90;6.32;;;;;;;22.43;60.31;100426.28;5045062;27;97006;-90
2021/06/27 05:21:31;;;;;;;15.40;6.63;;;;;;;22.66;59.76;100424.38;5044823;27;101221;-90
2021/06/27 05:23:57;;;;;;;11.18;6.47;;;;;;;22.87;59.40;100422.59;5060704;27;100147;-90
2021/06/27 05:26:22;;;;;;;10.75;6.40;;;;;;;23.00;58.89;100415.25;5044781;27;96592;-90
2021/06/27 05:28:48;;;;;;;12.20;6.30;;;;;;;23.14;58.66;100419.44;5054141;27;96989;-89
2021/06/27 05:31:13;;;;;;;8.85;5.70;;;;;;;23.39;58.34;100417.34;5052784;27;101067;-88
2021/06/27 05:33:39;;;;;;;11.93;6.00;;;;;;;23.58;57.75;100422.78;5078319;27;99851;-88
2021/06/27 05:36:05;;;;;;;12.73;6.45;;;;;;;23.80;56.89;100420.97;5058776;27;96926;-89
2021/06/27 05:38:30;;;;;;;9.38;6.10;;;;;;;24.02;56.62;100418.06;5046385;27;97039;-89
2021/06/27 05:40:56;;;;;;;13.65;6.82;;;;;;;24.17;55.81;100415.84;5064045;27;101385;-90
2021/06/27 05:43:22;;;;;;;7.40;5.95;;;;;;;24.51;55.55;100420.88;5082872;27;98357;-89
2021/06/27 05:45:48;;;;;;;9.35;5.80;;;;;;;24.82;55.00;100424.28;5067768;27;97084;-89
2021/06/27 05:48:13;;;;;;;10.20;5.72;;;;;;;24.94;54.16;100423.16;5044522;27;97069;-88
2021/06/27 05:50:39;;;;;;;7.97;5.72;;;;;;;25.31;53.36;100414.38;5052363;27;100168;-88
2021/06/27 05:53:05;;;;;;;9.25;5.63;;;;;;;25.48;52.98;100423.50;5060627;27;101398;-89
2021/06/27 05:55:30;;;;;;;9.10;5.63;;;;;;;25.88;52.61;100414.31;5061376;27;96636;-90
2021/06/27 05:57:56;;;;;;;8.27;5.20;;;;;;;26.10;52.30;100421.16;5057016;27;97261;-89
2021/06/27 06:00:21;;;;;;;8.18;5.50;;;;;;;26.39;51.08;100423.69;5051808;27;101369;-89
2021/06/27 06:02:47;;;;;;;11.48;9.88;;;;;;;27.43;48.80;100425.78;5055897;27;101522;-89
2021/06/27 06:05:13;;;;;;;11.52;6.60;;;;;;;28.58;46.24;100421.75;5031360;27;97255;-89
2021/06/27 06:07:38;;;;;;;8.13;5.65;;;;;;;29.23;44.79;100416.34;5039793;27;97318;-87
2021/06/27 06:10:05;;;;;;;9.40;6.40;;;;;;;29.87;43.49;100410.97;5047528;27;101567;-89
2021/06/27 06:12:31;;;;;;;13.90;5.97;;;;;;;30.00;43.11;100413.13;5090000;27;97436;-90
2021/06/27 06:14:56;;;;;;;8.48;6.25;;;;;;;30.36;42.41;100412.63;5048558;27;96922;-89
2021/06/27 06:17:22;;;;;;;11.23;6.28;;;;;;;31.32;41.33;100411.19;5038190;27;96845;-89
2021/06/27 06:19:51;;;;;;;9.32;5.32;;;;;;;32.01;40.22;100414.50;5059572;27;97934;-89
2021/06/27 06:22:17;;;;;;;9.17;5.73;;;;;;;32.46;39.04;100415.28;5040649;27;100798;-89
2021/06/27 06:24:43;;;;;;;10.77;9.70;;;;;;;32.84;38.63;100412.31;5068415;27;97080;-90
2021/06/27 06:27:08;;;;;;;8.52;5.30;;;;;;;33.23;37.37;100415.56;5057221;27;96805;-90
2021/06/27 06:29:34;;;;;;;10.88;9.00;;;;;;;33.92;36.37;100409.28;5047551;27;101909;-89
2021/06/27 06:32:00;;;;;;;9.75;5.40;;;;;;;34.02;35.34;100407.88;5041137;27;99993;-89
2021/06/27 06:34:25;;;;;;;9.13;5.43;;;;;;;34.25;34.41;100407.56;5061129;27;96878;-90
2021/06/27 06:36:51;;;;;;;13.27;8.55;;;;;;;34.36;34.79;100399.84;5077168;27;97233;-90
2021/06/27 06:39:17;;;;;;;11.40;9.02;;;;;;;34.97;34.75;100410.66;5038184;27;98863;-91
2021/06/27 06:41:42;;;;;;;14.25;5.20;;;;;;;35.40;33.82;100398.44;5055463;27;100749;-91
2021/06/27 06:44:08;;;;;;;12.43;8.85;;;;;;;35.26;32.94;100400.38;5056980;27;96967;-91
2021/06/27 06:46:34;;;;;;;18.15;14.43;;;;;;;35.77;32.91;100400.47;5041534;27;97009;-92
2021/06/27 06:48:59;;;;;;;9.68;4.55;;;;;;;36.28;32.35;100387.88;5038669;27;101470;-92
2021/06/27 06:51:25;;;;;;;7.05;4.68;;;;;;;36.46;31.74;100396.16;5038621;27;101434;-92
2021/06/27 06:53:51;;;;;;;8.15;4.80;;;;;;;35.89;31.60;100386.97;5059020;27;97208;-92
2021/06/27 06:56:17;;;;;;;6.35;4.65;;;;;;;36.47;31.32;100389.63;5039625;27;97172;-92
2021/06/27 06:58:43;;;;;;;8.88;8.00;;;;;;;37.13;30.87;100391.06;5031484;27;100866;-91
2021/06/27 07:01:09;;;;;;;7.53;4.80;;;;;;;37.93;30.25;100381.94;5049675;27;100211;-91
2021/06/27 07:03:34;;;;;;;6.40;4.28;;;;;;;38.19;29.68;100379.97;5055928;27;97151;-93
2021/06/27 07:06:00;;;;;;;5.32;4.53;;;;;;;38.66;28.77;100385.59;5056717;27;97442;-90
2021/06/27 07:08:27;;;;;;;9.40;8.60;;;;;;;38.67;27.53;100384.53;5038979;27;101166;-90
2021/06/27 07:10:53;;;;;;;6.75;6.15;;;;;;;38.60;28.10;100386.53;5023893;27;100180;-91
2021/06/27 07:13:19;;;;;;;5.10;3.92;;;;;;;38.66;28.41;100380.97;5050206;27;97950;-91
2021/06/27 07:15:45;;;;;;;6.70;4.32;;;;;;;39.00;27.92;100383.16;5052931;27;97128;-90
2021/06/27 07:18:10;;;;;;;5.60;4.53;;;;;;;39.16;27.21;100383.28;5032210;27;100697;-89
2021/06/27 07:20:36;;;;;;;5.18;4.05;;;;;;;38.94;27.50;100388.53;5040374;27;101220;-90
2021/06/27 07:23:02;;;;;;;8.07;7.35;;;;;;;39.57;27.18;100383.41;5052437;27;97120;-91
2021/06/27 07:25:28;;;;;;;9.10;7.55;;;;;;;39.67;26.88;100396.50;5051590;27;97465;-91
2021/06/27 07:27:54;;;;;;;9.05;7.32;;;;;;;39.75;26.94;100397.00;5037617;27;99987;-91
2021/06/27 07:30:20;;;;;;;8.45;7.75;;;;;;;39.89;27.33;100389.31;5041049;27;100629;-91
2021/06/27 07:32:46;;;;;;;8.77;7.93;;;;;;;39.43;26.88;100396.53;5057857;27;96800;-90
2021/06/27 07:35:12;;;;;;;9.20;7.78;;;;;;;39.75;26.16;100391.50;5058259;27;97211;-90
2021/06/27 07:37:37;;;;;;;7.95;7.30;;;;;;;39.32;27.34;100389.97;5032100;27;100907;-90
2021/06/27 07:40:04;;;;;;;12.00;7.93;;;;;;;39.87;27.45;100391.47;5071930;27;98441;-90
2021/06/27 07:42:29;;;;;;;11.05;10.05;;;;;;;40.02;27.05;100390.94;5037811;27;96764;-92
2021/06/27 07:44:55;;;;;;;10.95;10.15;;;;;;;39.78;26.83;100401.16;5034778;27;97209;-93
2021/06/27 07:47:20;;;;;;;11.13;10.13;;;;;;;39.89;26.89;100397.56;5057488;27;100693;-92
2021/06/27 07:49:46;;;;;;;10.68;9.52;;;;;;;39.94;27.13;100394.06;5039678;27;100144;-92
2021/06/27 07:52:12;;;;;;;11.30;10.50;;;;;;;39.59;26.74;100400.44;5040969;27;97133;-92
2021/06/27 07:54:38;;;;;;;11.52;10.63;;;;;;;39.79;26.60;100392.66;5040673;27;96657;-92
2021/06/27 07:57:05;;;;;;;11.05;10.15;;;;;;;40.21;25.89;100399.84;5036742;27;101621;-92
2021/06/27 07:59:31;;;;;;;11.13;10.32;;;;;;;40.04;26.76;100394.28;5052710;27;100694;-91
2021/06/27 08:01:56;;;;;;;10.55;9.77;;;;;;;39.58;26.37;100396.03;5037203;27;97272;-91
2021/06/27 08:04:22;;;;;;;10.20;9.43;;;;;;;39.55;25.97;100396.53;5051291;27;96989;-91
2021/06/27 08:06:47;;;;;;;10.95;10.18;;;;;;;39.21;26.58;100390.78;5042425;27;100024;-91
2021/06/27 08:09:13;;;;;;;10.95;10.05;;;;;;;39.93;26.31;100395.16;5037032;27;101235;-91
2021/06/27 08:11:40;;;;;;;10.52;9.68;;;;;;;39.73;26.65;100384.53;5054173;27;96659;-87
2021/06/27 08:14:06;;;;;;;10.65;9.68;;;;;;;39.71;27.14;100395.78;5055816;27;97014;-86
2021/06/27 08:16:31;;;;;;;11.40;10.50;;;;;;;39.46;27.07;100387.81;5044041;27;101942;-87
2021/06/27 08:18:57;;;;;;;10.23;9.63;;;;;;;39.00;28.37;100391.41;5040625;27;101557;-88
2021/06/27 08:21:23;;;;;;;10.32;9.70;;;;;;;39.21;27.65;100389.97;5036221;27;96540;-89
2021/06/27 08:23:48;;;;;;;11.93;10.93;;;;;;;39.66;26.98;100387.44;5061196;27;96886;-89
2021/06/27 08:26:14;;;;;;;11.50;10.80;;;;;;;39.87;26.55;100396.13;5060300;27;101461;-88
2021/06/27 08:28:40;;;;;;;11.40;10.55;;;;;;;38.84;28.58;100387.44;5040088;27;100078;-87
2021/06/27 08:31:06;;;;;;;10.95;10.13;;;;;;;38.61;28.80;100380.00;5060584;27;96871;-87
2021/06/27 08:33:32;;;;;;;11.13;10.38;;;;;;;37.79;29.63;100383.22;5041094;27;97101;-85
2021/06/27 08:35:57;;;;;;;11.27;10.30;;;;;;;38.41;28.75;100383.06;5035938;27;101216;-86
2021/06/27 08:38:23;;;;;;;11.00;10.10;;;;;;;38.22;28.91;100384.97;5054982;27;101413;-86
2021/06/27 08:40:49;;;;;;;12.07;11.00;;;;;;;37.96;28.94;100380.69;5043035;27;96621;-86
2021/06/27 08:43:14;;;;;;;10.50;9.77;;;;;;;37.93;28.94;100381.94;5048637;27;96943;-86
2021/06/27 08:45:52;;;;;;;11.13;10.30;;;;;;;37.75;28.63;100377.34;5049623;27;101273;-84
2021/06/27 08:48:23;;;;;;;11.40;10.07;;;;;;;38.40;28.27;100381.38;5059553;27;100266;-80
2021/06/27 08:50:53;;;;;;;11.25;10.43;;;;;;;38.25;28.35;100366.19;5039308;27;96729;-80
2021/06/27 08:53:20;;;;;;;11.13;10.30;;;;;;;38.50;27.38;100368.75;5046590;27;96983;-82
2021/06/27 08:55:45;;;;;;;11.88;10.75;;;;;;;38.97;27.75;100364.44;5041602;27;101743;-83
2021/06/27 08:58:11;;;;;;;11.75;10.85;;;;;;;38.45;26.67;100362.31;5038459;27;100596;-81
2021/06/27 09:00:38;;;;;;;11.38;10.57;;;;;;;38.33;27.37;100355.94;5042412;27;97192;-82
2021/06/27 09:03:07;;;;;;;11.05;10.20;;;;;;;37.78;28.07;100359.63;5051459;27;97258;-81
2021/06/27 09:05:34;;;;;;;10.93;10.13;;;;;;;37.64;29.33;100364.41;5048119;27;98342;-79
2021/06/27 09:08:17;;;;;;;12.18;11.18;;;;;;;37.45;27.91;100360.00;5038532;27;101664;-78
2021/06/27 09:10:42;;;;;;;10.45;9.85;;;;;;;36.26;30.08;100360.75;5057142;27;96642;-82
2021/06/27 09:13:08;;;;;;;12.38;11.23;;;;;;;34.72;32.76;100358.63;5050283;27;97172;-81
2021/06/27 09:15:41;;;;;;;11.75;11.00;;;;;;;35.35;31.96;100363.63;5042810;27;97712;-81
2021/06/27 09:18:14;;;;;;;11.60;10.80;;;;;;;35.78;31.17;100346.69;5076842;27;101833;-82
2021/06/27 09:20:45;;;;;;;11.40;10.57;;;;;;;35.85;29.42;100341.22;5059794;27;96922;-79
2021/06/27 09:23:14;;;;;;;11.45;10.65;;;;;;;35.91;28.12;100338.47;5043391;27;96850;-79
2021/06/27 09:25:40;;;;;;;10.82;10.13;;;;;;;34.97;31.44;100342.47;5055968;27;101519;-81
2021/06/27 09:28:11;;;;;;;10.88;10.18;;;;;;;35.52;30.02;100347.59;5035879;27;101069;-82
2021/06/27 09:30:49;;;;;;;10.57;9.77;;;;;;;34.92;31.27;100337.66;5044866;27;97125;-82
2021/06/27 09:33:17;;;;;;;11.20;10.30;;;;;;;35.03;30.73;100338.91;5076627;27;97077;-84
2021/06/27 09:35:56;;;;;;;10.35;9.75;;;;;;;35.07;30.71;100329.25;5037712;27;101899;-85
2021/06/27 09:38:26;;;;;;;;;;;;;;;34.74;31.74;100337.47;5074176;27;97627;-81
2021/06/27 09:41:12;;;;;;;9.65;9.05;;;;;;;34.81;31.19;100330.09;5038342;27;97582;-81
2021/06/27 09:43:37;;;;;;;10.38;9.43;;;;;;;33.87;32.03;100328.25;5028631;27;97339;-80
2021/06/27 09:46:12;;;;;;;10.93;10.15;;;;;;;33.95;32.22;100332.69;5036202;27;101194;-81
2021/06/27 09:49:11;;;;;;;10.07;9.38;;;;;;;33.82;31.70;100330.72;5044841;27;101203;-79
2021/06/27 09:51:43;;;;;;;9.88;9.27;;;;;;;33.73;32.01;100334.69;5038090;27;97455;-79
2021/06/27 09:54:14;;;;;;;10.73;10.00;;;;;;;32.51;33.61;100348.66;5074415;27;96906;-80
2021/06/27 09:56:39;;;;;;;10.60;9.90;;;;;;;32.73;32.78;100342.19;5044290;27;97412;-78
2021/06/27 09:59:08;;;;;;;10.82;9.77;;;;;;;31.54;34.71;100341.66;5036189;27;101460;-79
2021/06/27 10:01:35;;;;;;;11.00;10.02;;;;;;;32.65;33.21;100337.72;5057344;27;96903;-80
2021/06/27 10:04:03;;;;;;;11.10;10.07;;;;;;;32.65;32.83;100342.31;5036071;27;97236;-81
2021/06/27 10:06:33;;;;;;;10.63;9.93;;;;;;;32.81;32.51;100342.00;5039253;27;101533;-82
2021/06/27 10:09:09;;;;;;;;;;;;;;;32.34;32.39;100342.59;5042760;27;102372;-78
2021/06/27 10:11:35;;;;;;;10.90;10.20;;;;;;;31.44;34.87;100331.09;5057188;27;97113;-77
2021/06/27 10:14:07;;;;;;;10.85;10.15;;;;;;;30.68;35.32;100333.00;5055495;27;97637;-79
2021/06/27 10:16:33;;;;;;;6.95;6.45;;;;;;;30.87;35.07;100332.53;5036028;27;100987;-80
2021/06/27 10:19:00;;;;;;;9.27;8.68;;;;;;;31.16;34.83;100330.06;5052306;27;100343;-83
2021/06/27 10:21:29;;;;;;;3.95;2.80;;;;;;;31.25;34.77;100334.34;5044544;27;97580;-84
2021/06/27 10:23:55;;;;;;;4.55;3.60;;;;;;;31.70;33.50;100327.03;5031651;27;97045;-83
2021/06/27 10:26:23;;;;;;;5.78;3.33;;;;;;;31.21;34.65;100325.72;5044601;27;101712;-83
2021/06/27 10:28:49;;;;;;;8.95;8.05;;;;;;;30.65;35.31;100331.50;5049746;27;97246;-82
2021/06/27 10:31:17;;;;;;;6.43;5.88;;;;;;;30.74;34.99;100326.00;5029566;27;96952;-83
2021/06/27 10:33:45;;;;;;;4.55;2.88;;;;;;;30.74;35.21;100329.56;5040880;27;97258;-86
2021/06/27 10:36:14;;;;;;;4.57;3.10;;;;;;;29.93;35.44;100325.56;5045358;27;98048;-84
2021/06/27 10:38:43;;;;;;;4.70;3.00;;;;;;;30.32;35.33;100320.09;5053535;27;100568;-85
2021/06/27 10:41:08;;;;;;;11.50;10.60;;;;;;;29.58;35.11;100322.31;5047428;27;96715;-87
2021/06/27 10:43:56;;;;;;;7.90;7.15;;;;;;;30.24;34.42;100314.75;5076163;27;97148;-87
2021/06/27 10:46:37;;;;;;;4.60;4.15;;;;;;;30.20;34.27;100316.09;5058003;27;101559;-79
2021/06/27 10:49:03;;;;;;;5.60;3.47;;;;;;;30.26;34.73;100320.00;5057271;27;101790;-82
2021/06/27 10:52:00;;;;;;;4.00;3.63;;;;;;;30.50;34.21;100313.53;5054023;27;96957;-85
2021/06/27 10:54:33;;;;;;;11.75;6.80;;;;;;;30.72;33.85;100319.94;5054618;27;97116;-83
2021/06/27 10:56:59;;;;;;;3.45;3.15;;;;;;;30.88;31.91;100319.81;5057441;27;98242;-82
2021/06/27 10:59:53;;;;;;;5.05;3.35;;;;;;;30.96;32.09;100314.31;5056578;27;101239;-83
2021/06/27 11:02:39;;;;;;;4.03;3.63;;;;;;;30.84;31.87;100311.22;5057360;27;97215;-80
2021/06/27 11:05:44;;;;;;;3.80;3.40;;;;;;;30.52;32.93;100319.63;5057933;27;97169;-84
2021/06/27 11:08:12;;;;;;;3.88;3.45;;;;;;;30.67;33.01;100317.78;4940694;28;101276;-81
2021/06/27 11:10:37;;;;;;;4.97;3.47;;;;;;;30.42;32.66;100309.84;4945589;28;102004;-82
2021/06/27 11:13:07;;;;;;;6.20;4.25;;;;;;;30.31;33.41;100307.59;4950585;28;96944;-78
2021/06/27 11:15:35;;;;;;;3.93;3.50;;;;;;;30.17;34.09;100313.75;4989661;28;97100;-80